sensor_id;sensor_type;location;lat;lon;timestamp;temperature;humidity
11647;DHT22;5880;52.342;9.662;2022-09-25T00:01:35;16.80;70.40
11647;DHT22;5880;52.342;9.662;2022-09-25T00:04:01;16.70;70.30
11647;DHT22;5880;52.342;9.662;2022-09-25T00:06:29;16.70;70.40
11647;DHT22;5880;52.342;9.662;2022-09-25T00:08:57;16.70;70.40
11647;DHT22;5880;52.342;9.662;2022-09-25T00:11:29;16.70;70.30
11647;DHT22;5880;52.342;9.662;2022-09-25T00:13:58;16.70;70.30
11647;DHT22;5880;52.342;9.662;2022-09-25T00:16:27;16.70;70.30
11647;DHT22;5880;52.342;9.662;2022-09-25T00:18:56;16.60;70.30
11647;DHT22;5880;52.342;9.662;2022-09-25T00:21:41;16.60;70.30
11647;DHT22;5880;52.342;9.662;2022-09-25T00:24:09;16.60;70.30
11647;DHT22;5880;52.342;9.662;2022-09-25T00:26:38;16.60;70.40
11647;DHT22;5880;52.342;9.662;2022-09-25T00:29:06;16.60;70.50
11647;DHT22;5880;52.342;9.662;2022-09-25T00:31:33;16.60;70.50
11647;DHT22;5880;52.342;9.662;2022-09-25T00:34:00;16.60;70.60
11647;DHT22;5880;52.342;9.662;2022-09-25T00:36:29;16.60;70.60
11647;DHT22;5880;52.342;9.662;2022-09-25T00:38:55;16.60;70.50
11647;DHT22;5880;52.342;9.662;2022-09-25T00:41:24;16.60;70.60
11647;DHT22;5880;52.342;9.662;2022-09-25T00:43:54;16.60;70.70
11647;DHT22;5880;52.342;9.662;2022-09-25T00:46:37;16.60;70.70
11647;DHT22;5880;52.342;9.662;2022-09-25T00:49:13;16.50;70.90
11647;DHT22;5880;52.342;9.662;2022-09-25T00:54:17;16.50;70.60
11647;DHT22;5880;52.342;9.662;2022-09-25T00:56:48;16.50;70.60
11647;DHT22;5880;52.342;9.662;2022-09-25T00:59:22;16.50;70.60
11647;DHT22;5880;52.342;9.662;2022-09-25T01:01:51;16.50;71.00
11647;DHT22;5880;52.342;9.662;2022-09-25T01:04:17;16.50;70.60
11647;DHT22;5880;52.342;9.662;2022-09-25T01:06:44;16.50;70.70
11647;DHT22;5880;52.342;9.662;2022-09-25T01:09:10;16.50;70.70
11647;DHT22;5880;52.342;9.662;2022-09-25T01:11:36;16.40;70.70
11647;DHT22;5880;52.342;9.662;2022-09-25T01:14:04;16.40;70.70
11647;DHT22;5880;52.342;9.662;2022-09-25T01:16:58;16.50;70.90
11647;DHT22;5880;52.342;9.662;2022-09-25T01:23:19;16.40;71.40
11647;DHT22;5880;52.342;9.662;2022-09-25T01:26:55;16.40;71.40
11647;DHT22;5880;52.342;9.662;2022-09-25T01:29:44;16.40;71.30
11647;DHT22;5880;52.342;9.662;2022-09-25T01:41:11;16.30;71.20
11647;DHT22;5880;52.342;9.662;2022-09-25T01:44:08;16.40;71.10
11647;DHT22;5880;52.342;9.662;2022-09-25T01:46:50;16.30;71.10
11647;DHT22;5880;52.342;9.662;2022-09-25T01:49:21;16.40;71.10
11647;DHT22;5880;52.342;9.662;2022-09-25T01:51:57;16.30;70.90
11647;DHT22;5880;52.342;9.662;2022-09-25T01:54:29;16.20;70.70
11647;DHT22;5880;52.342;9.662;2022-09-25T01:57:10;16.30;71.10
11647;DHT22;5880;52.342;9.662;2022-09-25T01:59:50;16.20;71.50
11647;DHT22;5880;52.342;9.662;2022-09-25T02:02:24;16.20;71.10
11647;DHT22;5880;52.342;9.662;2022-09-25T02:04:57;16.20;71.00
11647;DHT22;5880;52.342;9.662;2022-09-25T02:07:45;16.20;70.90
11647;DHT22;5880;52.342;9.662;2022-09-25T02:10:33;16.20;71.60
11647;DHT22;5880;52.342;9.662;2022-09-25T02:13:11;16.20;71.60
11647;DHT22;5880;52.342;9.662;2022-09-25T02:15:43;16.10;71.20
11647;DHT22;5880;52.342;9.662;2022-09-25T02:18:17;16.40;71.10
11647;DHT22;5880;52.342;9.662;2022-09-25T02:24:13;16.10;70.90
11647;DHT22;5880;52.342;9.662;2022-09-25T02:26:45;16.10;71.60
11647;DHT22;5880;52.342;9.662;2022-09-25T02:29:12;16.10;70.90
11647;DHT22;5880;52.342;9.662;2022-09-25T02:31:47;16.10;71.00
11647;DHT22;5880;52.342;9.662;2022-09-25T02:34:15;16.10;71.20
11647;DHT22;5880;52.342;9.662;2022-09-25T02:36:42;16.10;71.10
11647;DHT22;5880;52.342;9.662;2022-09-25T02:39:13;16.10;71.10
11647;DHT22;5880;52.342;9.662;2022-09-25T02:44:31;16.10;71.10
11647;DHT22;5880;52.342;9.662;2022-09-25T02:50:41;16.10;72.20
11647;DHT22;5880;52.342;9.662;2022-09-25T02:58:50;16.00;71.50
11647;DHT22;5880;52.342;9.662;2022-09-25T03:01:23;16.00;71.20
11647;DHT22;5880;52.342;9.662;2022-09-25T03:03:55;16.00;72.10
11647;DHT22;5880;52.342;9.662;2022-09-25T03:06:24;16.00;71.30
11647;DHT22;5880;52.342;9.662;2022-09-25T03:08:54;16.00;71.20
11647;DHT22;5880;52.342;9.662;2022-09-25T03:11:23;16.00;71.40
11647;DHT22;5880;52.342;9.662;2022-09-25T03:14:01;16.00;71.30
11647;DHT22;5880;52.342;9.662;2022-09-25T03:16:48;16.00;72.30
11647;DHT22;5880;52.342;9.662;2022-09-25T03:19:21;16.00;71.50
11647;DHT22;5880;52.342;9.662;2022-09-25T03:21:51;16.00;71.30
11647;DHT22;5880;52.342;9.662;2022-09-25T03:24:19;16.00;71.30
11647;DHT22;5880;52.342;9.662;2022-09-25T03:26:45;16.00;72.10
11647;DHT22;5880;52.342;9.662;2022-09-25T03:29:12;16.00;71.40
11647;DHT22;5880;52.342;9.662;2022-09-25T03:31:39;16.10;71.50
11647;DHT22;5880;52.342;9.662;2022-09-25T03:34:07;16.10;71.60
11647;DHT22;5880;52.342;9.662;2022-09-25T03:36:34;16.00;71.40
11647;DHT22;5880;52.342;9.662;2022-09-25T03:39:00;16.00;71.50
11647;DHT22;5880;52.342;9.662;2022-09-25T03:41:28;16.00;71.40
11647;DHT22;5880;52.342;9.662;2022-09-25T03:43:56;16.00;71.30
11647;DHT22;5880;52.342;9.662;2022-09-25T03:46:25;16.10;71.30
11647;DHT22;5880;52.342;9.662;2022-09-25T03:48:53;16.00;71.30
11647;DHT22;5880;52.342;9.662;2022-09-25T03:51:20;16.00;71.30
11647;DHT22;5880;52.342;9.662;2022-09-25T03:53:47;16.00;71.20
11647;DHT22;5880;52.342;9.662;2022-09-25T03:56:17;16.00;71.30
11647;DHT22;5880;52.342;9.662;2022-09-25T03:58:46;16.00;71.40
11647;DHT22;5880;52.342;9.662;2022-09-25T04:01:13;16.00;71.40
11647;DHT22;5880;52.342;9.662;2022-09-25T04:03:38;16.00;71.40
11647;DHT22;5880;52.342;9.662;2022-09-25T04:06:06;16.00;71.50
11647;DHT22;5880;52.342;9.662;2022-09-25T04:08:34;15.90;71.50
11647;DHT22;5880;52.342;9.662;2022-09-25T04:11:02;15.90;71.40
11647;DHT22;5880;52.342;9.662;2022-09-25T04:13:31;15.90;71.40
11647;DHT22;5880;52.342;9.662;2022-09-25T04:15:59;15.90;71.40
11647;DHT22;5880;52.342;9.662;2022-09-25T04:18:26;15.90;71.40
11647;DHT22;5880;52.342;9.662;2022-09-25T04:20:56;15.90;71.40
11647;DHT22;5880;52.342;9.662;2022-09-25T04:23:23;15.90;71.40
11647;DHT22;5880;52.342;9.662;2022-09-25T04:25:48;15.90;71.40
11647;DHT22;5880;52.342;9.662;2022-09-25T04:28:14;15.90;71.40
11647;DHT22;5880;52.342;9.662;2022-09-25T04:30:40;15.90;71.40
11647;DHT22;5880;52.342;9.662;2022-09-25T04:33:05;15.90;71.40
11647;DHT22;5880;52.342;9.662;2022-09-25T04:35:50;15.90;72.20
11647;DHT22;5880;52.342;9.662;2022-09-25T04:38:15;15.90;71.40
11647;DHT22;5880;52.342;9.662;2022-09-25T04:40:42;15.90;71.40
11647;DHT22;5880;52.342;9.662;2022-09-25T04:43:10;15.90;71.50
11647;DHT22;5880;52.342;9.662;2022-09-25T04:45:36;15.90;71.50
11647;DHT22;5880;52.342;9.662;2022-09-25T04:48:03;15.90;71.50
11647;DHT22;5880;52.342;9.662;2022-09-25T04:50:30;15.90;71.60
11647;DHT22;5880;52.342;9.662;2022-09-25T04:52:56;15.90;71.60
11647;DHT22;5880;52.342;9.662;2022-09-25T04:55:23;15.90;71.50
11647;DHT22;5880;52.342;9.662;2022-09-25T04:57:54;15.90;71.50
11647;DHT22;5880;52.342;9.662;2022-09-25T05:00:21;15.90;71.70
11647;DHT22;5880;52.342;9.662;2022-09-25T05:02:48;15.90;71.50
11647;DHT22;5880;52.342;9.662;2022-09-25T05:05:14;15.90;71.50
11647;DHT22;5880;52.342;9.662;2022-09-25T05:07:59;16.00;71.50
11647;DHT22;5880;52.342;9.662;2022-09-25T05:10:29;16.00;72.00
11647;DHT22;5880;52.342;9.662;2022-09-25T05:13:00;16.00;71.50
11647;DHT22;5880;52.342;9.662;2022-09-25T05:15:28;16.00;71.40
11647;DHT22;5880;52.342;9.662;2022-09-25T05:18:11;15.90;71.40
11647;DHT22;5880;52.342;9.662;2022-09-25T05:20:40;15.90;71.70
11647;DHT22;5880;52.342;9.662;2022-09-25T05:23:07;16.00;72.10
11647;DHT22;5880;52.342;9.662;2022-09-25T05:25:33;16.00;71.20
11647;DHT22;5880;52.342;9.662;2022-09-25T05:28:00;15.90;71.30
11647;DHT22;5880;52.342;9.662;2022-09-25T05:30:29;15.90;71.20
11647;DHT22;5880;52.342;9.662;2022-09-25T05:32:56;15.90;71.40
11647;DHT22;5880;52.342;9.662;2022-09-25T05:35:23;16.10;71.50
11647;DHT22;5880;52.342;9.662;2022-09-25T05:37:50;15.90;71.30
11647;DHT22;5880;52.342;9.662;2022-09-25T05:40:17;15.90;71.40
11647;DHT22;5880;52.342;9.662;2022-09-25T05:42:45;15.90;71.40
11647;DHT22;5880;52.342;9.662;2022-09-25T05:45:13;15.90;72.10
11647;DHT22;5880;52.342;9.662;2022-09-25T05:47:39;15.90;71.40
11647;DHT22;5880;52.342;9.662;2022-09-25T05:50:07;15.90;71.40
11647;DHT22;5880;52.342;9.662;2022-09-25T05:52:35;15.90;71.50
11647;DHT22;5880;52.342;9.662;2022-09-25T05:55:01;15.90;71.50
11647;DHT22;5880;52.342;9.662;2022-09-25T05:57:35;15.90;71.50
11647;DHT22;5880;52.342;9.662;2022-09-25T06:00:04;15.90;71.70
11647;DHT22;5880;52.342;9.662;2022-09-25T06:02:33;16.00;71.60
11647;DHT22;5880;52.342;9.662;2022-09-25T06:04:59;15.90;71.40
11647;DHT22;5880;52.342;9.662;2022-09-25T06:07:24;16.00;71.50
11647;DHT22;5880;52.342;9.662;2022-09-25T06:09:50;16.00;71.40
11647;DHT22;5880;52.342;9.662;2022-09-25T06:12:16;16.00;71.30
11647;DHT22;5880;52.342;9.662;2022-09-25T06:14:42;16.00;71.40
11647;DHT22;5880;52.342;9.662;2022-09-25T06:17:08;16.00;71.40
11647;DHT22;5880;52.342;9.662;2022-09-25T06:19:36;16.00;71.50
11647;DHT22;5880;52.342;9.662;2022-09-25T06:22:02;16.00;71.60
11647;DHT22;5880;52.342;9.662;2022-09-25T06:24:28;16.00;71.60
11647;DHT22;5880;52.342;9.662;2022-09-25T06:26:53;16.00;71.60
11647;DHT22;5880;52.342;9.662;2022-09-25T06:29:19;16.00;71.60
11647;DHT22;5880;52.342;9.662;2022-09-25T06:31:44;16.00;71.60
11647;DHT22;5880;52.342;9.662;2022-09-25T06:34:11;16.00;71.60
11647;DHT22;5880;52.342;9.662;2022-09-25T06:36:37;16.10;71.70
11647;DHT22;5880;52.342;9.662;2022-09-25T06:39:03;16.10;71.70
11647;DHT22;5880;52.342;9.662;2022-09-25T06:41:31;16.10;71.80
11647;DHT22;5880;52.342;9.662;2022-09-25T06:43:57;16.10;71.80
11647;DHT22;5880;52.342;9.662;2022-09-25T06:46:22;16.10;71.80
11647;DHT22;5880;52.342;9.662;2022-09-25T06:48:52;16.20;71.80
11647;DHT22;5880;52.342;9.662;2022-09-25T06:51:20;16.20;71.90
11647;DHT22;5880;52.342;9.662;2022-09-25T06:53:46;16.20;71.60
11647;DHT22;5880;52.342;9.662;2022-09-25T06:56:12;16.20;71.60
11647;DHT22;5880;52.342;9.662;2022-09-25T06:58:38;16.20;71.60
11647;DHT22;5880;52.342;9.662;2022-09-25T07:01:04;16.30;71.70
11647;DHT22;5880;52.342;9.662;2022-09-25T07:03:34;16.20;71.60
11647;DHT22;5880;52.342;9.662;2022-09-25T07:06:17;16.20;71.60
11647;DHT22;5880;52.342;9.662;2022-09-25T07:08:44;16.30;71.90
11647;DHT22;5880;52.342;9.662;2022-09-25T07:11:16;16.30;71.80
11647;DHT22;5880;52.342;9.662;2022-09-25T07:13:43;16.30;71.80
11647;DHT22;5880;52.342;9.662;2022-09-25T07:16:15;16.30;71.70
11647;DHT22;5880;52.342;9.662;2022-09-25T07:18:43;16.30;71.90
11647;DHT22;5880;52.342;9.662;2022-09-25T07:21:14;16.30;71.60
11647;DHT22;5880;52.342;9.662;2022-09-25T07:23:46;16.30;71.70
11647;DHT22;5880;52.342;9.662;2022-09-25T07:26:19;16.30;72.30
11647;DHT22;5880;52.342;9.662;2022-09-25T07:28:47;16.30;71.60
11647;DHT22;5880;52.342;9.662;2022-09-25T07:31:24;16.40;71.50
11647;DHT22;5880;52.342;9.662;2022-09-25T07:33:51;16.40;71.40
11647;DHT22;5880;52.342;9.662;2022-09-25T07:36:18;16.30;71.30
11647;DHT22;5880;52.342;9.662;2022-09-25T07:38:50;16.30;71.30
11647;DHT22;5880;52.342;9.662;2022-09-25T07:41:18;16.30;71.40
11647;DHT22;5880;52.342;9.662;2022-09-25T07:43:45;16.30;71.30
11647;DHT22;5880;52.342;9.662;2022-09-25T07:46:11;16.30;71.40
11647;DHT22;5880;52.342;9.662;2022-09-25T07:48:36;16.30;71.50
11647;DHT22;5880;52.342;9.662;2022-09-25T07:51:08;16.30;71.60
11647;DHT22;5880;52.342;9.662;2022-09-25T07:53:37;16.40;71.80
11647;DHT22;5880;52.342;9.662;2022-09-25T07:56:03;16.40;71.70
11647;DHT22;5880;52.342;9.662;2022-09-25T07:58:29;16.40;71.60
11647;DHT22;5880;52.342;9.662;2022-09-25T08:00:59;16.40;71.70
11647;DHT22;5880;52.342;9.662;2022-09-25T08:03:26;16.50;71.80
11647;DHT22;5880;52.342;9.662;2022-09-25T08:06:07;16.50;71.80
11647;DHT22;5880;52.342;9.662;2022-09-25T08:08:34;16.50;71.80
11647;DHT22;5880;52.342;9.662;2022-09-25T08:11:11;16.50;71.50
11647;DHT22;5880;52.342;9.662;2022-09-25T08:13:40;16.50;71.50
11647;DHT22;5880;52.342;9.662;2022-09-25T08:16:08;16.50;71.30
11647;DHT22;5880;52.342;9.662;2022-09-25T08:18:38;16.50;71.20
11647;DHT22;5880;52.342;9.662;2022-09-25T08:21:06;16.50;71.20
11647;DHT22;5880;52.342;9.662;2022-09-25T08:23:33;16.50;71.20
11647;DHT22;5880;52.342;9.662;2022-09-25T08:25:59;16.50;71.20
11647;DHT22;5880;52.342;9.662;2022-09-25T08:28:26;16.50;71.20
11647;DHT22;5880;52.342;9.662;2022-09-25T08:30:52;16.50;71.20
11647;DHT22;5880;52.342;9.662;2022-09-25T08:33:18;16.50;71.20
11647;DHT22;5880;52.342;9.662;2022-09-25T08:35:56;16.50;71.20
11647;DHT22;5880;52.342;9.662;2022-09-25T08:38:25;16.50;71.50
11647;DHT22;5880;52.342;9.662;2022-09-25T08:44:03;16.50;71.50
11647;DHT22;5880;52.342;9.662;2022-09-25T08:46:39;16.60;71.40
11647;DHT22;5880;52.342;9.662;2022-09-25T08:49:30;16.60;71.30
11647;DHT22;5880;52.342;9.662;2022-09-25T08:52:05;16.60;71.30
11647;DHT22;5880;52.342;9.662;2022-09-25T08:54:36;16.60;71.30
11647;DHT22;5880;52.342;9.662;2022-09-25T08:57:16;16.60;71.20
11647;DHT22;5880;52.342;9.662;2022-09-25T08:59:53;16.70;71.40
11647;DHT22;5880;52.342;9.662;2022-09-25T09:02:29;16.70;71.40
11647;DHT22;5880;52.342;9.662;2022-09-25T09:05:04;16.70;71.30
11647;DHT22;5880;52.342;9.662;2022-09-25T09:07:42;16.70;71.20
11647;DHT22;5880;52.342;9.662;2022-09-25T09:18:52;16.80;70.90
11647;DHT22;5880;52.342;9.662;2022-09-25T09:21:27;16.80;70.80
11647;DHT22;5880;52.342;9.662;2022-09-25T09:32:49;16.80;70.90
11647;DHT22;5880;52.342;9.662;2022-09-25T09:47:33;16.90;71.20
11647;DHT22;5880;52.342;9.662;2022-09-25T09:53:09;16.90;71.20
11647;DHT22;5880;52.342;9.662;2022-09-25T09:55:47;16.90;71.30
11647;DHT22;5880;52.342;9.662;2022-09-25T09:58:27;16.90;71.50
11647;DHT22;5880;52.342;9.662;2022-09-25T10:00:55;17.00;71.40
11647;DHT22;5880;52.342;9.662;2022-09-25T10:03:32;17.00;71.50
11647;DHT22;5880;52.342;9.662;2022-09-25T10:06:08;17.00;71.20
11647;DHT22;5880;52.342;9.662;2022-09-25T10:08:38;17.10;71.40
11647;DHT22;5880;52.342;9.662;2022-09-25T10:11:17;17.10;71.50
11647;DHT22;5880;52.342;9.662;2022-09-25T10:13:45;17.20;71.60
11647;DHT22;5880;52.342;9.662;2022-09-25T10:16:16;17.20;71.50
11647;DHT22;5880;52.342;9.662;2022-09-25T10:21:37;17.30;71.20
11647;DHT22;5880;52.342;9.662;2022-09-25T10:24:06;17.40;71.10
11647;DHT22;5880;52.342;9.662;2022-09-25T10:26:37;17.40;71.00
11647;DHT22;5880;52.342;9.662;2022-09-25T10:31:35;17.50;70.60
11647;DHT22;5880;52.342;9.662;2022-09-25T10:34:16;17.50;70.60
11647;DHT22;5880;52.342;9.662;2022-09-25T10:36:48;17.50;70.50
11647;DHT22;5880;52.342;9.662;2022-09-25T10:39:25;17.50;70.20
11647;DHT22;5880;52.342;9.662;2022-09-25T10:41:56;17.50;69.90
11647;DHT22;5880;52.342;9.662;2022-09-25T10:44:35;17.50;69.90
11647;DHT22;5880;52.342;9.662;2022-09-25T10:50:19;17.50;69.60
11647;DHT22;5880;52.342;9.662;2022-09-25T10:52:54;17.40;69.00
11647;DHT22;5880;52.342;9.662;2022-09-25T10:55:29;17.40;69.60
11647;DHT22;5880;52.342;9.662;2022-09-25T11:00:50;17.40;69.40
11647;DHT22;5880;52.342;9.662;2022-09-25T11:05:54;17.20;69.20
11647;DHT22;5880;52.342;9.662;2022-09-25T11:08:25;17.30;69.30
11647;DHT22;5880;52.342;9.662;2022-09-25T11:10:56;17.40;69.40
11647;DHT22;5880;52.342;9.662;2022-09-25T11:13:44;17.40;69.40
11647;DHT22;5880;52.342;9.662;2022-09-25T11:16:11;17.30;69.50
11647;DHT22;5880;52.342;9.662;2022-09-25T11:18:40;17.40;69.80
11647;DHT22;5880;52.342;9.662;2022-09-25T11:21:19;17.40;69.90
11647;DHT22;5880;52.342;9.662;2022-09-25T11:35:46;17.60;69.70
11647;DHT22;5880;52.342;9.662;2022-09-25T11:38:42;17.80;69.60
11647;DHT22;5880;52.342;9.662;2022-09-25T11:41:47;17.70;69.30
11647;DHT22;5880;52.342;9.662;2022-09-25T11:47:11;17.80;70.00
11647;DHT22;5880;52.342;9.662;2022-09-25T11:49:47;17.90;68.60
11647;DHT22;5880;52.342;9.662;2022-09-25T11:52:37;17.90;68.50
11647;DHT22;5880;52.342;9.662;2022-09-25T11:58:02;17.90;68.10
11647;DHT22;5880;52.342;9.662;2022-09-25T12:04:09;18.00;68.90
11647;DHT22;5880;52.342;9.662;2022-09-25T12:06:57;18.10;68.40
11647;DHT22;5880;52.342;9.662;2022-09-25T12:12:19;18.30;68.60
11647;DHT22;5880;52.342;9.662;2022-09-25T12:15:42;18.40;68.50
11647;DHT22;5880;52.342;9.662;2022-09-25T12:18:36;18.50;67.60
11647;DHT22;5880;52.342;9.662;2022-09-25T12:21:20;18.60;67.90
11647;DHT22;5880;52.342;9.662;2022-09-25T12:27:18;18.70;66.60
11647;DHT22;5880;52.342;9.662;2022-09-25T12:32:52;18.70;65.90
11647;DHT22;5880;52.342;9.662;2022-09-25T12:35:44;18.60;66.20
11647;DHT22;5880;52.342;9.662;2022-09-25T12:41:32;18.60;65.80
11647;DHT22;5880;52.342;9.662;2022-09-25T12:44:15;18.60;65.70
11647;DHT22;5880;52.342;9.662;2022-09-25T12:46:54;18.60;65.70
11647;DHT22;5880;52.342;9.662;2022-09-25T12:49:34;18.60;66.00
11647;DHT22;5880;52.342;9.662;2022-09-25T12:52:23;18.60;66.00
11647;DHT22;5880;52.342;9.662;2022-09-25T12:55:00;18.60;66.20
11647;DHT22;5880;52.342;9.662;2022-09-25T12:57:59;18.60;66.40
11647;DHT22;5880;52.342;9.662;2022-09-25T13:00:37;18.60;65.20
11647;DHT22;5880;52.342;9.662;2022-09-25T13:03:15;18.70;66.60
11647;DHT22;5880;52.342;9.662;2022-09-25T13:05:57;18.70;66.10
11647;DHT22;5880;52.342;9.662;2022-09-25T13:11:54;18.90;65.80
11647;DHT22;5880;52.342;9.662;2022-09-25T13:17:33;19.00;64.20
11647;DHT22;5880;52.342;9.662;2022-09-25T13:22:50;19.10;64.20
11647;DHT22;5880;52.342;9.662;2022-09-25T13:25:20;19.10;65.20
11647;DHT22;5880;52.342;9.662;2022-09-25T13:27:47;19.20;64.80
11647;DHT22;5880;52.342;9.662;2022-09-25T13:30:25;19.20;64.40
11647;DHT22;5880;52.342;9.662;2022-09-25T13:32:58;19.20;62.80
11647;DHT22;5880;52.342;9.662;2022-09-25T13:35:29;19.20;63.80
11647;DHT22;5880;52.342;9.662;2022-09-25T13:38:09;19.30;64.10
11647;DHT22;5880;52.342;9.662;2022-09-25T13:41:11;19.30;62.60
11647;DHT22;5880;52.342;9.662;2022-09-25T13:43:38;19.30;62.70
11647;DHT22;5880;52.342;9.662;2022-09-25T13:48:42;19.40;61.60
11647;DHT22;5880;52.342;9.662;2022-09-25T14:01:50;19.30;61.40
11647;DHT22;5880;52.342;9.662;2022-09-25T14:04:28;19.20;61.60
11647;DHT22;5880;52.342;9.662;2022-09-25T14:07:09;19.20;61.10
11647;DHT22;5880;52.342;9.662;2022-09-25T14:09:43;19.20;61.20
11647;DHT22;5880;52.342;9.662;2022-09-25T14:15:31;19.10;61.30
11647;DHT22;5880;52.342;9.662;2022-09-25T14:18:02;19.10;61.90
11647;DHT22;5880;52.342;9.662;2022-09-25T14:20:36;18.90;61.90
11647;DHT22;5880;52.342;9.662;2022-09-25T14:23:24;18.90;61.90
11647;DHT22;5880;52.342;9.662;2022-09-25T14:26:02;18.80;60.80
11647;DHT22;5880;52.342;9.662;2022-09-25T14:28:33;18.70;61.30
11647;DHT22;5880;52.342;9.662;2022-09-25T14:37:21;18.60;62.30
11647;DHT22;5880;52.342;9.662;2022-09-25T14:40:18;18.60;62.00
11647;DHT22;5880;52.342;9.662;2022-09-25T14:43:54;18.50;61.90
11647;DHT22;5880;52.342;9.662;2022-09-25T14:46:28;18.50;62.30
11647;DHT22;5880;52.342;9.662;2022-09-25T14:49:19;18.50;63.10
11647;DHT22;5880;52.342;9.662;2022-09-25T14:51:59;18.40;62.50
11647;DHT22;5880;52.342;9.662;2022-09-25T14:54:31;18.60;63.00
11647;DHT22;5880;52.342;9.662;2022-09-25T14:57:01;18.40;63.20
11647;DHT22;5880;52.342;9.662;2022-09-25T14:59:54;18.40;63.30
11647;DHT22;5880;52.342;9.662;2022-09-25T15:02:31;18.40;63.10
11647;DHT22;5880;52.342;9.662;2022-09-25T15:07:53;18.50;63.30
11647;DHT22;5880;52.342;9.662;2022-09-25T15:10:35;18.50;63.60
11647;DHT22;5880;52.342;9.662;2022-09-25T15:13:19;18.50;63.00
11647;DHT22;5880;52.342;9.662;2022-09-25T15:15:52;18.50;63.30
11647;DHT22;5880;52.342;9.662;2022-09-25T15:18:41;18.40;63.50
11647;DHT22;5880;52.342;9.662;2022-09-25T15:21:28;18.40;64.30
11647;DHT22;5880;52.342;9.662;2022-09-25T15:24:03;18.40;63.20
11647;DHT22;5880;52.342;9.662;2022-09-25T15:26:38;18.40;63.50
11647;DHT22;5880;52.342;9.662;2022-09-25T15:29:15;18.40;63.40
11647;DHT22;5880;52.342;9.662;2022-09-25T15:31:47;18.40;63.20
11647;DHT22;5880;52.342;9.662;2022-09-25T15:34:25;18.30;63.40
11647;DHT22;5880;52.342;9.662;2022-09-25T15:36:52;18.40;63.00
11647;DHT22;5880;52.342;9.662;2022-09-25T15:39:24;18.30;63.50
11647;DHT22;5880;52.342;9.662;2022-09-25T15:41:53;18.30;63.30
11647;DHT22;5880;52.342;9.662;2022-09-25T15:44:24;18.30;63.70
11647;DHT22;5880;52.342;9.662;2022-09-25T15:46:52;18.40;63.80
11647;DHT22;5880;52.342;9.662;2022-09-25T15:49:32;18.30;63.80
11647;DHT22;5880;52.342;9.662;2022-09-25T15:52:13;18.30;63.70
11647;DHT22;5880;52.342;9.662;2022-09-25T15:54:46;18.20;63.50
11647;DHT22;5880;52.342;9.662;2022-09-25T15:57:22;18.20;63.70
11647;DHT22;5880;52.342;9.662;2022-09-25T15:59:51;18.20;63.50
11647;DHT22;5880;52.342;9.662;2022-09-25T16:02:39;18.20;63.70
11647;DHT22;5880;52.342;9.662;2022-09-25T16:05:43;18.20;63.50
11647;DHT22;5880;52.342;9.662;2022-09-25T16:08:32;18.20;63.60
11647;DHT22;5880;52.342;9.662;2022-09-25T16:11:24;18.20;63.50
11647;DHT22;5880;52.342;9.662;2022-09-25T16:14:26;18.20;63.60
11647;DHT22;5880;52.342;9.662;2022-09-25T16:16:56;18.20;63.50
11647;DHT22;5880;52.342;9.662;2022-09-25T16:21:50;18.20;63.80
11647;DHT22;5880;52.342;9.662;2022-09-25T16:24:19;18.20;63.90
11647;DHT22;5880;52.342;9.662;2022-09-25T16:26:54;18.20;64.00
11647;DHT22;5880;52.342;9.662;2022-09-25T16:29:25;18.10;64.00
11647;DHT22;5880;52.342;9.662;2022-09-25T16:31:52;18.10;64.10
11647;DHT22;5880;52.342;9.662;2022-09-25T16:34:29;18.10;64.20
11647;DHT22;5880;52.342;9.662;2022-09-25T16:36:59;18.20;64.40
11647;DHT22;5880;52.342;9.662;2022-09-25T16:39:37;18.10;64.40
11647;DHT22;5880;52.342;9.662;2022-09-25T16:42:28;18.10;64.20
11647;DHT22;5880;52.342;9.662;2022-09-25T16:45:20;18.10;64.40
11647;DHT22;5880;52.342;9.662;2022-09-25T16:47:55;18.10;64.50
11647;DHT22;5880;52.342;9.662;2022-09-25T16:50:27;18.10;64.40
11647;DHT22;5880;52.342;9.662;2022-09-25T16:52:56;18.10;64.20
11647;DHT22;5880;52.342;9.662;2022-09-25T16:55:26;18.10;64.10
11647;DHT22;5880;52.342;9.662;2022-09-25T16:57:54;18.10;64.00
11647;DHT22;5880;52.342;9.662;2022-09-25T17:00:24;18.00;63.90
11647;DHT22;5880;52.342;9.662;2022-09-25T17:02:52;18.00;63.50
11647;DHT22;5880;52.342;9.662;2022-09-25T17:05:21;18.00;63.40
11647;DHT22;5880;52.342;9.662;2022-09-25T17:07:52;18.00;63.10
11647;DHT22;5880;52.342;9.662;2022-09-25T17:10:22;17.90;63.00
11647;DHT22;5880;52.342;9.662;2022-09-25T17:12:52;17.90;62.80
11647;DHT22;5880;52.342;9.662;2022-09-25T17:15:32;17.90;63.10
11647;DHT22;5880;52.342;9.662;2022-09-25T17:18:00;17.90;62.90
11647;DHT22;5880;52.342;9.662;2022-09-25T17:20:28;17.90;62.90
11647;DHT22;5880;52.342;9.662;2022-09-25T17:22:55;17.80;62.60
11647;DHT22;5880;52.342;9.662;2022-09-25T17:28:08;17.80;62.70
11647;DHT22;5880;52.342;9.662;2022-09-25T17:30:34;17.70;62.50
11647;DHT22;5880;52.342;9.662;2022-09-25T17:33:01;17.70;62.60
11647;DHT22;5880;52.342;9.662;2022-09-25T17:35:39;18.00;62.70
11647;DHT22;5880;52.342;9.662;2022-09-25T17:38:10;17.60;62.30
11647;DHT22;5880;52.342;9.662;2022-09-25T17:40:38;17.60;62.40
11647;DHT22;5880;52.342;9.662;2022-09-25T17:43:09;17.50;62.20
11647;DHT22;5880;52.342;9.662;2022-09-25T17:48:34;17.50;62.00
11647;DHT22;5880;52.342;9.662;2022-09-25T17:53:41;17.40;62.10
11647;DHT22;5880;52.342;9.662;2022-09-25T17:56:08;17.30;62.20
11647;DHT22;5880;52.342;9.662;2022-09-25T17:58:35;17.30;62.00
11647;DHT22;5880;52.342;9.662;2022-09-25T18:01:02;17.20;62.10
11647;DHT22;5880;52.342;9.662;2022-09-25T18:03:31;17.20;62.00
11647;DHT22;5880;52.342;9.662;2022-09-25T18:05:57;17.10;62.10
11647;DHT22;5880;52.342;9.662;2022-09-25T18:08:23;17.10;62.00
11647;DHT22;5880;52.342;9.662;2022-09-25T18:10:52;17.00;62.00
11647;DHT22;5880;52.342;9.662;2022-09-25T18:13:20;17.00;62.00
11647;DHT22;5880;52.342;9.662;2022-09-25T18:15:54;16.90;62.10
11647;DHT22;5880;52.342;9.662;2022-09-25T18:18:22;16.80;61.90
11647;DHT22;5880;52.342;9.662;2022-09-25T18:20:48;16.80;62.00
11647;DHT22;5880;52.342;9.662;2022-09-25T18:23:32;16.70;62.10
11647;DHT22;5880;52.342;9.662;2022-09-25T18:26:05;16.90;62.10
11647;DHT22;5880;52.342;9.662;2022-09-25T18:28:33;16.60;61.90
11647;DHT22;5880;52.342;9.662;2022-09-25T18:30:58;16.60;62.10
11647;DHT22;5880;52.342;9.662;2022-09-25T18:33:24;16.50;62.40
11647;DHT22;5880;52.342;9.662;2022-09-25T18:35:51;16.50;62.20
11647;DHT22;5880;52.342;9.662;2022-09-25T18:38:17;16.40;62.20
11647;DHT22;5880;52.342;9.662;2022-09-25T18:40:44;16.40;62.20
11647;DHT22;5880;52.342;9.662;2022-09-25T18:43:10;16.30;62.30
11647;DHT22;5880;52.342;9.662;2022-09-25T18:45:36;16.30;62.50
11647;DHT22;5880;52.342;9.662;2022-09-25T18:48:02;16.60;62.60
11647;DHT22;5880;52.342;9.662;2022-09-25T18:50:31;16.20;62.50
11647;DHT22;5880;52.342;9.662;2022-09-25T18:52:57;16.20;62.60
11647;DHT22;5880;52.342;9.662;2022-09-25T18:55:23;16.20;62.70
11647;DHT22;5880;52.342;9.662;2022-09-25T18:57:50;16.10;62.80
11647;DHT22;5880;52.342;9.662;2022-09-25T19:00:17;16.10;63.10